Time;durP1;ratioP1;P1;durP2;ratioP2;P2;SDS_P1;SDS_P2;PMS_P1;PMS_P2;Temp;Humidity;BMP_temperature;BMP_pressure;BME280_temperature;BME280_humidity;BME280_pressure;Samples;Min_cycle;Max_cycle;Signal;HPM_P1;HPM_P2
2023/01/02 00:04:15;;;;;;;18.42;9.05;;;;;;;9.16;100.00;100941.28;10444068;28;20072;-78
2023/01/02 00:09:17;;;;;;;22.63;9.75;;;;;;;9.36;100.00;100934.56;10456160;28;20072;-78
2023/01/02 00:14:17;;;;;;;15.10;7.87;;;;;;;9.66;100.00;100922.19;10446209;28;20803;-79
2023/01/02 00:19:18;;;;;;;13.02;7.07;;;;;;;9.77;100.00;100912.31;10458205;28;20037;-79
2023/01/02 00:24:18;;;;;;;16.05;8.48;;;;;;;9.76;100.00;100907.91;10465350;28;20080;-79
2023/01/02 00:29:19;;;;;;;13.98;6.18;;;;;;;9.97;100.00;100905.47;10441309;28;20044;-80
2023/01/02 00:34:19;;;;;;;15.32;7.22;;;;;;;10.11;100.00;100900.97;10439766;28;20074;-79
2023/01/02 00:39:20;;;;;;;14.40;7.25;;;;;;;10.24;100.00;100899.84;10461092;28;20398;-79
2023/01/02 00:44:20;;;;;;;12.35;4.80;;;;;;;10.37;100.00;100885.66;10427925;28;20051;-79
2023/01/02 00:49:21;;;;;;;18.70;5.60;;;;;;;10.48;100.00;100877.47;10454242;28;20405;-79
2023/01/02 00:54:21;;;;;;;11.73;4.65;;;;;;;10.66;100.00;100870.50;10433482;28;20561;-80
2023/01/02 00:59:22;;;;;;;16.05;5.03;;;;;;;10.85;100.00;100856.53;10461043;28;20124;-79
2023/01/02 01:04:22;;;;;;;12.43;4.15;;;;;;;11.02;100.00;100843.31;10446383;28;20045;-79
2023/01/02 01:09:23;;;;;;;8.18;4.38;;;;;;;11.12;100.00;100837.66;10471616;28;20522;-79
2023/01/02 01:14:23;;;;;;;10.20;5.72;;;;;;;11.12;100.00;100837.66;10451744;28;20033;-79
2023/01/02 01:19:24;;;;;;;10.32;4.28;;;;;;;11.15;100.00;100840.41;10463673;28;20035;-80
2023/01/02 01:24:24;;;;;;;13.82;4.40;;;;;;;11.13;100.00;100839.44;10454846;28;20120;-77
2023/01/02 01:29:25;;;;;;;8.10;5.22;;;;;;;11.21;100.00;100857.22;10457256;28;20558;-80
2023/01/02 01:34:25;;;;;;;10.00;4.47;;;;;;;11.16;100.00;100857.91;10450171;28;20131;-80
2023/01/02 01:39:26;;;;;;;11.20;3.97;;;;;;;11.12;100.00;100862.97;10442209;28;20044;-80
2023/01/02 01:44:39;;;;;;;13.02;4.22;;;;;;;11.02;100.00;100873.03;10439173;28;20063;-80
2023/01/02 01:49:39;;;;;;;12.65;5.38;;;;;;;10.99;100.00;100871.97;10450071;28;20053;-80
2023/01/02 01:54:55;;;;;;;12.73;5.68;;;;;;;10.78;100.00;100880.63;10478123;28;20036;-80
2023/01/02 01:59:56;;;;;;;8.48;4.00;;;;;;;10.71;100.00;100889.00;10419734;28;20560;-79
2023/01/02 02:04:56;;;;;;;13.02;4.57;;;;;;;10.68;100.00;100904.56;10462619;28;20090;-79
2023/01/02 02:10:07;;;;;;;21.35;6.22;;;;;;;10.67;100.00;100897.53;10440955;28;20064;-78
2023/01/02 02:15:11;;;;;;;12.85;5.25;;;;;;;10.60;100.00;100888.53;10450424;28;20481;-78
2023/01/02 02:20:27;;;;;;;15.65;6.82;;;;;;;10.52;100.00;100882.91;10437919;28;20060;-79
2023/01/02 02:25:47;;;;;;;14.93;6.03;;;;;;;10.46;100.00;100881.72;10444206;28;20505;-78
2023/01/02 02:30:51;;;;;;;15.70;7.03;;;;;;;10.41;100.00;100874.56;10442476;28;20045;-77
2023/01/02 02:36:23;;;;;;;9.23;4.80;;;;;;;10.42;100.00;100893.75;10470357;28;20110;-79
2023/01/02 02:41:41;;;;;;;8.93;6.13;;;;;;;10.47;100.00;100886.13;10415782;28;20492;-79
2023/01/02 02:46:46;;;;;;;11.85;6.40;;;;;;;10.48;100.00;100895.78;10435635;28;21943;-78
2023/01/02 02:51:51;;;;;;;13.98;5.50;;;;;;;10.47;100.00;100883.53;10432840;28;20114;-78
2023/01/02 02:56:51;;;;;;;11.32;4.85;;;;;;;10.42;100.00;100894.66;10430452;28;20049;-79
2023/01/02 03:01:52;;;;;;;13.23;5.90;;;;;;;10.40;100.00;100893.69;10412045;28;20141;-78
2023/01/02 03:07:21;;;;;;;9.80;4.53;;;;;;;10.43;100.00;100893.84;10424637;28;20132;-78
2023/01/02 03:12:39;;;;;;;9.38;4.95;;;;;;;10.44;100.00;100889.47;10449556;28;20246;-79
2023/01/02 03:17:52;;;;;;;14.35;4.75;;;;;;;10.38;100.00;100892.69;10443799;28;20049;-78
2023/01/02 03:22:56;;;;;;;16.25;7.15;;;;;;;10.39;100.00;100901.41;10405114;28;20084;-78
2023/01/02 03:27:57;;;;;;;13.85;5.05;;;;;;;10.32;100.00;100886.22;10407154;28;20041;-78
2023/01/02 03:33:10;;;;;;;12.43;5.70;;;;;;;10.28;100.00;100898.28;10407110;28;20532;-78
2023/01/02 03:38:14;;;;;;;14.98;5.80;;;;;;;10.28;100.00;100908.75;10386793;28;20117;-78
2023/01/02 03:43:17;;;;;;;12.75;5.75;;;;;;;10.28;100.00;100899.16;10412095;28;20029;-78
2023/01/02 03:48:33;;;;;;;29.45;7.85;;;;;;;10.28;100.00;100911.38;10383850;28;20132;-79
2023/01/02 03:53:34;;;;;;;14.10;5.10;;;;;;;10.27;100.00;100899.09;10402599;28;20041;-78
2023/01/02 03:58:38;;;;;;;13.07;6.07;;;;;;;10.33;100.00;100899.41;10400455;28;20056;-79
2023/01/02 04:03:46;;;;;;;15.38;5.45;;;;;;;10.43;100.00;100913.84;10402804;28;20037;-79
2023/01/02 04:08:48;;;;;;;22.80;5.88;;;;;;;10.48;100.00;100916.72;10383045;28;20038;-79
2023/01/02 04:13:52;;;;;;;15.20;4.95;;;;;;;10.57;100.00;100909.31;10360781;28;20037;-79
2023/01/02 04:18:55;;;;;;;9.40;4.70;;;;;;;10.59;100.00;100915.50;10345337;28;20046;-77
2023/01/02 04:23:58;;;;;;;12.90;5.47;;;;;;;10.69;100.00;100907.28;10344565;28;20038;-78
2023/01/02 04:28:59;;;;;;;9.50;4.97;;;;;;;10.66;100.00;100916.69;10363529;28;20045;-80
2023/01/02 04:33:59;;;;;;;10.52;3.83;;;;;;;10.63;100.00;100912.22;10401167;28;20417;-79
2023/01/02 04:39:00;;;;;;;7.78;3.72;;;;;;;10.66;100.00;100908.84;10383368;28;20034;-78
2023/01/02 04:44:00;;;;;;;6.13;3.40;;;;;;;10.72;100.00;100906.50;10400505;28;20456;-82
2023/01/02 04:49:01;;;;;;;16.10;4.55;;;;;;;10.64;100.00;100898.31;10398271;28;20048;-80
2023/01/02 04:54:01;;;;;;;7.85;3.95;;;;;;;10.69;100.00;100912.50;10434852;28;20481;-81
2023/01/02 04:59:02;;;;;;;7.15;4.03;;;;;;;10.66;100.00;100924.53;10414247;28;20578;-80
2023/01/02 05:04:03;;;;;;;7.95;3.10;;;;;;;10.58;100.00;100929.41;10402208;28;20047;-79
2023/01/02 05:09:03;;;;;;;20.80;7.20;;;;;;;10.59;100.00;100925.97;10405857;28;20381;-80
2023/01/02 05:14:04;;;;;;;6.60;3.10;;;;;;;10.64;100.00;100932.34;10426628;28;20460;-79
2023/01/02 05:19:04;;;;;;;8.13;2.72;;;;;;;10.62;100.00;100933.97;10420740;28;20457;-79
2023/01/02 05:24:05;;;;;;;10.05;3.20;;;;;;;10.77;100.00;100940.78;10399064;28;20044;-79
2023/01/02 05:29:05;;;;;;;8.55;3.92;;;;;;;10.71;100.00;100954.44;10409627;28;20381;-79
2023/01/02 05:34:09;;;;;;;9.93;3.22;;;;;;;10.72;100.00;100958.88;10412239;28;20128;-79
2023/01/02 05:39:13;;;;;;;7.57;2.22;;;;;;;10.78;100.00;100959.16;10367949;28;20033;-81
2023/01/02 05:44:13;;;;;;;8.32;3.72;;;;;;;10.77;100.00;100965.22;10384291;28;20038;-80
2023/01/02 05:49:14;;;;;;;7.22;2.92;;;;;;;10.70;100.00;100965.75;10385180;28;20144;-80
2023/01/02 05:54:14;;;;;;;7.18;2.25;;;;;;;10.56;100.00;100976.44;10410134;28;20123;-80
2023/01/02 05:59:15;;;;;;;6.30;2.40;;;;;;;10.43;100.00;100990.66;10403273;28;20129;-79
2023/01/02 06:04:16;;;;;;;5.55;2.63;;;;;;;10.34;100.00;101000.63;10410181;28;20040;-83
2023/01/02 06:09:16;;;;;;;7.13;2.88;;;;;;;10.20;100.00;101006.84;10366514;28;20504;-79
2023/01/02 06:14:17;;;;;;;6.20;3.83;;;;;;;10.14;100.00;101010.97;10393643;28;20033;-79
2023/01/02 06:19:17;;;;;;;6.97;3.50;;;;;;;10.07;100.00;101019.31;10409128;28;20048;-80
2023/01/02 06:24:18;;;;;;;8.60;3.40;;;;;;;10.01;100.00;101036.38;10395178;28;20167;-79
2023/01/02 06:29:18;;;;;;;8.00;2.83;;;;;;;9.99;100.00;101031.06;10392541;28;20472;-79
2023/01/02 06:34:19;;;;;;;9.07;3.55;;;;;;;9.90;100.00;101033.22;10377532;28;20037;-80
2023/01/02 06:39:19;;;;;;;10.18;5.32;;;;;;;9.85;100.00;101046.03;10369560;28;20033;-78
2023/01/02 06:44:20;;;;;;;13.30;7.78;;;;;;;9.82;100.00;101046.78;10377246;28;20052;-80
2023/01/02 06:49:20;;;;;;;9.60;4.38;;;;;;;9.82;100.00;101057.22;10412059;28;20404;-80
2023/01/02 06:54:21;;;;;;;10.65;4.90;;;;;;;9.80;100.00;101051.00;10407013;28;20128;-79
2023/01/02 06:59:21;;;;;;;11.15;6.22;;;;;;;9.81;100.00;101062.34;10401800;28;20038;-81
2023/01/02 07:04:22;;;;;;;12.95;4.70;;;;;;;9.80;100.00;101078.84;10429398;28;20040;-80
2023/01/02 07:09:22;;;;;;;7.88;4.90;;;;;;;9.81;100.00;101083.25;10413291;28;20119;-79
2023/01/02 07:14:23;;;;;;;10.70;5.65;;;;;;;9.74;100.00;101088.97;10451823;28;20047;-79
2023/01/02 07:19:24;;;;;;;10.35;4.63;;;;;;;9.77;100.00;101110.06;10465375;28;20128;-79
2023/01/02 07:24:24;;;;;;;10.55;5.05;;;;;;;9.79;100.00;101130.25;10453482;28;20370;-78
2023/01/02 07:29:25;;;;;;;16.38;6.38;;;;;;;9.78;100.00;101138.91;10426133;28;20045;-80
2023/01/02 07:34:28;;;;;;;9.32;4.10;;;;;;;9.84;100.00;101199.38;10369441;28;20156;-78
2023/01/02 07:39:28;;;;;;;4.80;1.13;;;;;;;9.27;100.00;101195.25;10389581;28;20487;-79
2023/01/02 07:44:29;;;;;;;4.30;1.15;;;;;;;8.83;100.00;101203.13;10403789;28;20033;-80
2023/01/02 07:49:29;;;;;;;2.78;1.40;;;;;;;8.56;100.00;101215.41;10400818;28;20375;-80
2023/01/02 07:54:30;;;;;;;6.28;1.73;;;;;;;8.44;100.00;101234.66;10385958;28;20117;-81
2023/01/02 07:59:30;;;;;;;7.32;2.17;;;;;;;8.36;100.00;101247.25;10368238;28;20030;-80
2023/01/02 08:04:31;;;;;;;5.38;2.50;;;;;;;8.25;100.00;101256.09;10374841;28;20045;-80
2023/01/02 08:09:31;;;;;;;5.32;2.70;;;;;;;8.18;100.00;101269.56;10386574;28;20131;-80
2023/01/02 08:14:32;;;;;;;5.93;3.78;;;;;;;8.16;100.00;101290.31;10413606;28;20033;-79
2023/01/02 08:19:32;;;;;;;8.05;4.72;;;;;;;8.18;100.00;101306.06;10387775;28;20125;-80
2023/01/02 08:24:33;;;;;;;8.40;4.95;;;;;;;8.18;100.00;101317.38;10376516;28;20033;-80
2023/01/02 08:29:33;;;;;;;8.50;5.93;;;;;;;8.25;100.00;101323.00;10398884;28;20534;-80
2023/01/02 08:34:34;;;;;;;11.68;6.07;;;;;;;8.27;100.00;101330.13;10400508;28;20050;-80
2023/01/02 08:39:34;;;;;;;10.70;7.22;;;;;;;8.40;100.00;101337.00;10365732;28;20042;-81
2023/01/02 08:44:36;;;;;;;11.93;8.07;;;;;;;8.47;100.00;101348.75;10362723;28;20042;-80
2023/01/02 08:49:37;;;;;;;65.47;38.53;;;;;;;8.47;100.00;101351.38;10390808;28;20378;-83
2023/01/02 08:54:37;;;;;;;10.70;8.00;;;;;;;8.50;100.00;101359.41;10424266;28;20089;-81
2023/01/02 08:59:38;;;;;;;9.73;7.28;;;;;;;8.47;100.00;101367.00;10404296;28;20041;-84
2023/01/02 09:04:39;;;;;;;10.23;6.97;;;;;;;8.44;100.00;101364.22;10367530;28;20120;-85
2023/01/02 09:09:39;;;;;;;9.65;6.55;;;;;;;8.45;100.00;101368.63;10369094;28;20398;-85
2023/01/02 09:14:40;;;;;;;13.15;7.95;;;;;;;8.52;100.00;101378.69;10388117;28;20068;-85
2023/01/02 09:19:41;;;;;;;11.82;8.77;;;;;;;8.44;100.00;101393.78;10440357;28;20048;-84
2023/01/02 09:24:42;;;;;;;14.70;7.85;;;;;;;8.50;100.00;101404.66;10437585;28;20045;-84
2023/01/02 09:29:42;;;;;;;12.68;7.40;;;;;;;8.51;100.00;101416.00;10430779;28;20110;-83
2023/01/02 09:34:49;;;;;;;12.75;7.57;;;;;;;8.62;100.00;101427.13;10413524;28;20393;-82
2023/01/02 09:39:49;;;;;;;11.07;6.97;;;;;;;8.78;100.00;101440.34;10424765;28;20042;-85
2023/01/02 09:44:54;;;;;;;12.68;7.35;;;;;;;8.85;100.00;101451.19;10404817;28;20118;-88
2023/01/02 09:50:03;;;;;;;11.40;6.50;;;;;;;8.81;100.00;101445.78;10416527;28;20037;-89
2023/01/02 09:55:13;;;;;;;15.38;8.75;;;;;;;8.74;100.00;101443.56;10438551;28;20393;-89
2023/01/02 10:00:24;;;;;;;18.50;9.40;;;;;;;8.75;100.00;101453.22;10437723;28;20120;-90
2023/01/02 10:05:59;;;;;;;11.68;7.05;;;;;;;8.74;100.00;101448.78;10380911;28;20045;-83
2023/01/02 10:11:22;;;;;;;12.70;6.63;;;;;;;8.76;100.00;101461.97;10391146;28;20046;-85
2023/01/02 10:16:26;;;;;;;11.70;6.50;;;;;;;8.91;100.00;101462.03;10421684;28;20235;-86
2023/01/02 10:21:29;;;;;;;9.50;5.72;;;;;;;9.14;100.00;101473.03;10428331;28;20477;-84
2023/01/02 10:26:41;;;;;;;10.60;5.32;;;;;;;9.26;100.00;101455.50;10417114;28;20041;-86
2023/01/02 10:31:59;;;;;;;15.68;7.20;;;;;;;9.32;100.00;101461.13;10419100;28;20041;-85
2023/01/02 10:36:59;;;;;;;12.38;7.40;;;;;;;9.22;100.00;101458.75;10395626;28;20043;-84
2023/01/02 10:42:00;;;;;;;13.18;8.27;;;;;;;9.09;100.00;101462.31;10389246;28;20041;-83
2023/01/02 10:47:10;;;;;;;11.75;7.25;;;;;;;9.20;100.00;101462.97;10374491;28;20051;-82
2023/01/02 10:52:29;;;;;;;13.00;7.47;;;;;;;9.14;100.00;101473.94;10444488;28;20064;-84
2023/01/02 10:57:50;;;;;;;11.40;7.13;;;;;;;9.17;100.00;101452.31;10445387;28;20762;-82
2023/01/02 11:03:18;;;;;;;9.65;6.68;;;;;;;9.27;100.00;101454.69;10455334;28;20369;-82
2023/01/02 11:08:25;;;;;;;9.20;4.75;;;;;;;9.46;100.00;101461.06;10443096;28;20036;-83
2023/01/02 11:13:26;;;;;;;9.32;5.22;;;;;;;9.50;100.00;101458.75;10421806;28;20060;-85
2023/01/02 11:18:31;;;;;;;15.52;6.03;;;;;;;9.59;100.00;101468.84;10429041;28;20451;-84
2023/01/02 11:23:36;;;;;;;11.13;5.60;;;;;;;9.78;100.00;101464.75;10442139;28;20033;-81
2023/01/02 11:28:38;;;;;;;10.68;5.97;;;;;;;9.93;100.00;101475.25;10419089;28;20037;-81
2023/01/02 11:33:38;;;;;;;13.18;6.88;;;;;;;9.89;100.00;101476.75;10386364;28;20045;-83
2023/01/02 11:38:49;;;;;;;8.73;4.88;;;;;;;9.70;100.00;101467.78;10363350;28;20042;-81
2023/01/02 11:43:56;;;;;;;11.15;5.72;;;;;;;9.59;100.00;101475.81;10386393;28;20033;-81
2023/01/02 11:49:17;;;;;;;9.27;5.18;;;;;;;9.47;100.00;101489.00;10423213;28;20073;-82
2023/01/02 11:54:20;;;;;;;7.93;4.35;;;;;;;9.45;100.00;101490.63;10404252;28;20485;-84
2023/01/02 11:59:35;;;;;;;10.18;4.57;;;;;;;9.34;100.00;101493.47;10433239;28;20064;-84
2023/01/02 12:04:36;;;;;;;10.02;4.75;;;;;;;9.36;100.00;101509.25;10380090;28;20060;-82
2023/01/02 12:09:48;;;;;;;9.18;4.35;;;;;;;9.37;100.00;101508.44;10391474;28;20500;-84
2023/01/02 12:14:54;;;;;;;;;;;;;;;9.29;100.00;101480.94;10420124;28;20052;-84
2023/01/02 12:20:04;;;;;;;7.90;4.80;;;;;;;9.19;100.00;101495.13;10435816;28;19925;-85
2023/01/02 12:25:33;;;;;;;9.95;5.38;;;;;;;9.05;100.00;101512.53;10423337;28;20075;-83
2023/01/02 12:30:34;;;;;;;9.93;5.03;;;;;;;9.02;100.00;101533.22;10398453;28;20080;-84
2023/01/02 12:35:47;;;;;;;9.20;5.38;;;;;;;8.91;100.00;101556.91;10398932;28;20045;-83
2023/01/02 12:41:19;;;;;;;10.38;4.90;;;;;;;8.99;100.00;101554.78;10467451;28;20071;-81
2023/01/02 12:46:40;;;;;;;17.50;6.72;;;;;;;8.96;100.00;101557.22;10351200;28;20067;-81
2023/01/02 12:52:17;;;;;;;13.60;6.90;;;;;;;9.01;100.00;101547.97;10369760;28;20048;-81
2023/01/02 12:57:40;;;;;;;15.38;7.70;;;;;;;8.94;100.00;101564.03;10421538;28;20053;-79
2023/01/02 13:03:07;;;;;;;15.70;7.05;;;;;;;8.82;100.00;101575.47;10380623;28;20501;-79
2023/01/02 13:08:36;;;;;;;15.10;7.90;;;;;;;8.81;100.00;101583.22;10396439;28;20061;-80
2023/01/02 13:13:37;;;;;;;12.30;8.43;;;;;;;8.62;100.00;101602.88;10367940;28;20045;-79
2023/01/02 13:18:55;;;;;;;12.80;7.15;;;;;;;8.51;100.00;101581.25;10382922;28;20359;-80
2023/01/02 13:23:56;;;;;;;17.02;7.78;;;;;;;8.50;100.00;101555.97;10423870;28;20455;-81
2023/01/02 13:29:05;;;;;;;13.50;6.93;;;;;;;8.46;100.00;101582.63;10394137;28;20048;-81
2023/01/02 13:34:24;;;;;;;11.48;6.25;;;;;;;8.48;100.00;101585.34;10424091;28;20055;-81
2023/01/02 13:39:31;;;;;;;14.20;7.10;;;;;;;8.45;100.00;101590.34;10392316;28;20038;-81
2023/01/02 13:44:33;;;;;;;15.60;7.45;;;;;;;8.40;100.00;101584.81;10351154;28;20034;-83
2023/01/02 13:49:33;;;;;;;14.52;7.50;;;;;;;8.44;100.00;101601.59;10398260;28;20053;-83
2023/01/02 13:54:35;;;;;;;15.20;7.93;;;;;;;8.47;100.00;101618.34;10416074;28;20495;-82
2023/01/02 13:59:35;;;;;;;19.13;7.70;;;;;;;8.64;100.00;101619.53;10439315;28;20041;-83
2023/01/02 14:04:37;;;;;;;11.27;6.53;;;;;;;8.48;100.00;101627.09;10422493;28;20071;-80
2023/01/02 14:10:08;;;;;;;12.15;6.72;;;;;;;8.40;100.00;101638.72;10434959;28;20451;-80
2023/01/02 14:15:15;;;;;;;9.63;4.95;;;;;;;8.35;100.00;101643.59;10420755;28;20042;-80
2023/01/02 14:20:15;;;;;;;13.85;6.38;;;;;;;8.29;100.00;101651.91;10441154;28;20026;-81
2023/01/02 14:25:16;;;;;;;9.48;4.43;;;;;;;8.19;100.00;101639.03;10407712;28;20045;-80
2023/01/02 14:30:21;;;;;;;9.85;5.60;;;;;;;8.12;100.00;101636.78;10413995;28;20094;-82
2023/01/02 14:35:25;;;;;;;12.30;5.65;;;;;;;8.11;100.00;101633.25;10434027;28;20094;-80
2023/01/02 14:40:28;;;;;;;11.65;6.15;;;;;;;8.03;100.00;101652.69;10415992;28;20045;-81
2023/01/02 14:45:30;;;;;;;9.43;6.05;;;;;;;8.02;100.00;101669.13;10407082;28;20045;-80
2023/01/02 14:50:32;;;;;;;11.57;6.53;;;;;;;8.02;100.00;101674.31;10385003;28;20091;-80
2023/01/02 14:55:33;;;;;;;;;;;;;;;7.99;100.00;101675.03;10402373;28;20489;-80
2023/01/02 15:00:36;;;;;;;11.35;6.63;;;;;;;7.93;100.00;101704.16;10418735;28;19927;-83
2023/01/02 15:05:44;;;;;;;9.93;6.45;;;;;;;8.07;100.00;101715.59;10402861;28;20055;-81
2023/01/02 15:13:02;;;;;;;10.05;5.55;;;;;;;8.15;100.00;101704.78;10437872;28;20037;-79
2023/01/02 15:16:22;;;;;;;19.23;6.90;;;;;;;8.06;100.00;101708.56;10438320;28;20049;-81
2023/01/02 15:21:25;;;;;;;10.60;5.15;;;;;;;8.02;100.00;101710.81;10406719;28;20099;-81
2023/01/02 15:26:32;;;;;;;8.30;5.40;;;;;;;8.01;100.00;101737.69;10388861;28;20038;-80
2023/01/02 15:31:33;;;;;;;11.60;6.40;;;;;;;8.00;100.00;101742.00;10413217;28;20049;-81
2023/01/02 15:36:38;;;;;;;8.05;5.13;;;;;;;8.06;100.00;101772.81;10403781;28;20481;-81
2023/01/02 15:41:47;;;;;;;5.70;2.30;;;;;;;7.46;100.00;101783.28;10387564;28;20115;-80
2023/01/02 15:46:48;;;;;;;3.03;1.60;;;;;;;6.78;100.00;101790.22;10422687;28;20060;-80
2023/01/02 15:51:49;;;;;;;5.18;0.73;;;;;;;6.41;100.00;101804.75;10361852;28;20042;-81
2023/01/02 15:56:49;;;;;;;1.95;1.20;;;;;;;6.20;100.00;101810.81;10394157;28;20128;-80
2023/01/02 16:01:50;;;;;;;3.40;1.23;;;;;;;6.09;100.00;101809.97;10376702;28;20069;-79
2023/01/02 16:06:50;;;;;;;4.00;1.60;;;;;;;6.07;100.00;101817.63;10393543;28;20125;-82
2023/01/02 16:11:57;;;;;;;3.70;1.42;;;;;;;6.09;100.00;101829.06;10378209;28;20042;-83
2023/01/02 16:17:00;;;;;;;2.92;1.10;;;;;;;6.10;100.00;101855.97;10421965;28;20059;-81
2023/01/02 16:22:05;;;;;;;3.72;1.73;;;;;;;5.95;100.00;101861.69;10403797;28;20037;-81
2023/01/02 16:27:06;;;;;;;7.40;2.78;;;;;;;5.86;100.00;101863.53;10409101;28;20046;-82
2023/01/02 16:32:27;;;;;;;2.97;1.38;;;;;;;5.77;100.00;101887.06;10456250;28;20119;-80
2023/01/02 16:37:30;;;;;;;5.72;2.10;;;;;;;5.79;100.00;101884.59;10448078;28;20041;-81
2023/01/02 16:42:38;;;;;;;3.72;1.92;;;;;;;5.71;100.00;101894.34;10408211;28;20045;-79
2023/01/02 16:47:39;;;;;;;5.90;2.60;;;;;;;5.71;100.00;101895.25;10407854;28;20499;-81
2023/01/02 16:52:39;;;;;;;5.57;2.70;;;;;;;5.55;100.00;101911.22;10421720;28;20041;-83
2023/01/02 16:57:40;;;;;;;6.43;3.13;;;;;;;5.51;100.00;101900.47;10443239;28;20437;-83
2023/01/02 17:02:40;;;;;;;9.00;3.75;;;;;;;5.37;100.00;101900.19;10433812;28;20041;-83
2023/01/02 17:07:41;;;;;;;6.32;3.40;;;;;;;5.36;100.00;101911.34;10428937;28;20172;-82
2023/01/02 17:12:42;;;;;;;6.07;3.25;;;;;;;5.36;100.00;101906.16;10360610;28;20072;-79
2023/01/02 17:17:42;;;;;;;9.63;4.28;;;;;;;5.12;100.00;101917.94;10381925;28;20515;-80
2023/01/02 17:22:43;;;;;;;7.82;3.83;;;;;;;5.14;100.00;101932.88;10394666;28;20489;-80
2023/01/02 17:27:43;;;;;;;6.93;3.25;;;;;;;5.07;100.00;101935.72;10396361;28;20120;-79
2023/01/02 17:32:45;;;;;;;10.30;5.40;;;;;;;4.95;100.00;101958.00;10374369;28;20040;-79
2023/01/02 17:37:48;;;;;;;11.40;6.35;;;;;;;5.01;100.00;101966.31;10383717;28;20045;-80
2023/01/02 17:42:48;;;;;;;12.07;5.95;;;;;;;5.04;100.00;101973.44;10398140;28;20033;-86
2023/01/02 17:47:49;;;;;;;14.82;6.25;;;;;;;5.07;100.00;101979.81;10351070;28;20488;-82
2023/01/02 17:52:50;;;;;;;11.05;6.18;;;;;;;4.98;100.00;101982.50;10399097;28;20042;-81
2023/01/02 17:57:50;;;;;;;12.93;6.55;;;;;;;5.16;100.00;101992.69;10352848;28;20060;-86
2023/01/02 18:02:51;;;;;;;14.40;7.38;;;;;;;5.38;100.00;101994.56;10400219;28;20804;-81
2023/01/02 18:07:51;;;;;;;15.60;8.70;;;;;;;5.50;100.00;101999.91;10372924;28;20052;-83
2023/01/02 18:12:52;;;;;;;23.67;10.10;;;;;;;5.52;100.00;102008.75;10387320;28;20555;-82
2023/01/02 18:17:53;;;;;;;16.42;8.85;;;;;;;5.40;100.00;102011.19;10421169;28;20048;-81
2023/01/02 18:22:54;;;;;;;15.93;7.60;;;;;;;5.58;100.00;102017.06;10479778;28;20044;-82
2023/01/02 18:28:05;;;;;;;21.40;9.95;;;;;;;5.65;100.00;102036.69;10439723;28;20131;-81
2023/01/02 18:33:12;;;;;;;15.57;10.03;;;;;;;5.73;100.00;102039.16;10449017;28;20040;-81
2023/01/02 18:38:27;;;;;;;16.70;10.40;;;;;;;5.82;100.00;102046.84;10456271;28;20036;-80
2023/01/02 18:43:34;;;;;;;20.25;9.73;;;;;;;5.87;100.00;102061.13;10470404;28;20037;-82
2023/01/02 18:48:35;;;;;;;15.45;9.15;;;;;;;5.82;100.00;102059.81;10431257;28;20036;-83
2023/01/02 18:53:42;;;;;;;15.95;9.35;;;;;;;5.75;100.00;102066.97;10452475;28;20438;-80
2023/01/02 18:58:58;;;;;;;27.38;12.60;;;;;;;5.75;100.00;102072.16;10424217;28;20044;-81
2023/01/02 19:04:07;;;;;;;21.20;9.80;;;;;;;5.84;100.00;102092.03;10490113;28;20047;-81
2023/01/02 19:09:30;;;;;;;17.15;10.07;;;;;;;5.83;100.00;102102.31;10474140;28;20079;-80
2023/01/02 19:14:38;;;;;;;17.70;11.48;;;;;;;5.92;100.00;102105.72;10444579;28;20086;-85
2023/01/02 19:19:38;;;;;;;22.05;11.77;;;;;;;6.02;100.00;102121.34;10461295;28;20106;-82
2023/01/02 19:24:39;;;;;;;14.88;9.63;;;;;;;5.94;100.00;102124.94;10456620;28;20178;-84
2023/01/02 19:29:42;;;;;;;15.63;10.60;;;;;;;5.78;100.00;102125.28;10476621;28;20446;-82
2023/01/02 19:34:47;;;;;;;18.38;10.35;;;;;;;5.77;100.00;102132.97;10441060;28;20484;-82
2023/01/02 19:39:52;;;;;;;18.63;11.23;;;;;;;5.87;100.00;102146.88;10445474;28;20155;-83
2023/01/02 19:44:57;;;;;;;19.75;9.55;;;;;;;5.90;100.00;102166.09;10427356;28;20036;-81
2023/01/02 19:49:58;;;;;;;18.15;10.30;;;;;;;5.94;100.00;102169.13;10484417;28;20049;-81
2023/01/02 19:54:58;;;;;;;22.15;12.15;;;;;;;5.98;100.00;102171.22;10468759;28;20041;-82
2023/01/02 19:59:59;;;;;;;15.27;9.65;;;;;;;5.91;100.00;102179.25;10445293;28;20120;-82
2023/01/02 20:04:59;;;;;;;23.17;12.18;;;;;;;5.90;100.00;102190.44;10443373;28;20071;-83
2023/01/02 20:10:00;;;;;;;15.77;10.52;;;;;;;5.88;100.00;102199.78;10462446;28;20055;-83
2023/01/02 20:15:03;;;;;;;16.58;9.48;;;;;;;5.77;100.00;102201.41;10484436;28;20062;-83
2023/01/02 20:20:05;;;;;;;16.23;8.85;;;;;;;5.67;100.00;102210.09;10461762;28;20096;-84
2023/01/02 20:25:08;;;;;;;17.20;8.40;;;;;;;5.55;100.00;102220.28;10425669;28;20637;-83
2023/01/02 20:30:09;;;;;;;21.23;10.45;;;;;;;5.38;100.00;102223.03;10441778;28;20044;-83
2023/01/02 20:35:10;;;;;;;15.93;10.13;;;;;;;5.33;100.00;102225.22;10426676;28;20552;-80
2023/01/02 20:40:11;;;;;;;15.73;9.52;;;;;;;5.47;100.00;102228.16;10446391;28;20041;-81
2023/01/02 20:45:12;;;;;;;16.27;12.80;;;;;;;5.45;100.00;102246.19;10456451;28;20381;-79
2023/01/02 20:50:12;;;;;;;24.38;11.38;;;;;;;5.37;100.00;102253.31;10447673;28;20060;-81
2023/01/02 20:55:13;;;;;;;17.65;11.98;;;;;;;5.42;100.00;102252.03;10442493;28;20489;-81
2023/01/02 21:00:14;;;;;;;19.45;11.82;;;;;;;5.32;100.00;102258.81;10442418;28;20052;-81
2023/01/02 21:05:15;;;;;;;16.38;10.13;;;;;;;5.14;100.00;102274.53;10484913;28;20029;-81
2023/01/02 21:10:16;;;;;;;18.70;11.52;;;;;;;5.17;100.00;102282.59;10458862;28;20045;-81
2023/01/02 21:20:35;;;;;;;17.75;12.00;;;;;;;5.24;100.00;102292.78;10466434;28;20028;-81
2023/01/02 21:25:36;;;;;;;15.73;9.82;;;;;;;5.21;100.00;102297.69;10483218;28;20614;-81
2023/01/02 21:30:37;;;;;;;28.23;11.25;;;;;;;5.05;100.00;102297.03;10424198;28;20036;-81
2023/01/02 21:35:39;;;;;;;18.30;9.43;;;;;;;4.84;100.00;102295.19;10423213;28;20037;-82
2023/01/02 21:40:39;;;;;;;14.53;8.67;;;;;;;4.73;100.00;102302.72;10465558;28;20064;-82
2023/01/02 21:45:40;;;;;;;14.82;10.02;;;;;;;4.65;100.00;102304.63;10481753;28;20460;-81
2023/01/02 21:50:40;;;;;;;16.00;8.57;;;;;;;4.61;100.00;102305.09;10456146;28;20094;-82
2023/01/02 21:55:41;;;;;;;18.17;10.10;;;;;;;4.50;100.00;102307.56;10439563;28;20045;-81
2023/01/02 22:00:41;;;;;;;16.27;8.18;;;;;;;4.57;100.00;102302.97;10427834;28;20094;-82
2023/01/02 22:05:42;;;;;;;15.55;9.95;;;;;;;4.51;100.00;102296.44;10408733;28;20053;-82
2023/01/02 22:10:43;;;;;;;18.85;9.23;;;;;;;4.53;100.00;102301.75;10401085;28;20125;-82
2023/01/02 22:15:44;;;;;;;16.30;9.93;;;;;;;4.47;100.00;102314.13;10413975;28;20046;-82
2023/01/02 22:20:44;;;;;;;13.57;7.53;;;;;;;4.40;100.00;102331.69;10438866;28;20381;-84
2023/01/02 22:25:45;;;;;;;19.50;8.68;;;;;;;4.46;100.00;102330.44;10402771;28;20064;-84
2023/01/02 22:30:45;;;;;;;16.95;9.10;;;;;;;4.44;100.00;102334.56;10363784;28;20405;-82
2023/01/02 22:35:47;;;;;;;16.70;8.68;;;;;;;4.37;100.00;102340.88;10398047;28;20053;-82
2023/01/02 22:40:47;;;;;;;15.43;9.20;;;;;;;4.31;100.00;102348.94;10453359;28;20132;-82
2023/01/02 22:45:49;;;;;;;19.48;11.77;;;;;;;4.23;100.00;102362.84;10433794;28;20055;-83
2023/01/02 22:50:52;;;;;;;23.00;10.05;;;;;;;4.06;100.00;102349.16;10406349;28;20045;-82
2023/01/02 22:55:52;;;;;;;17.63;8.40;;;;;;;4.08;100.00;102357.09;10399263;28;20475;-82
2023/01/02 23:01:06;;;;;;;17.15;8.48;;;;;;;4.30;100.00;102364.38;10418905;28;20044;-83
2023/01/02 23:06:06;;;;;;;20.85;9.80;;;;;;;4.43;100.00;102372.56;10383655;28;22695;-83
2023/01/02 23:11:07;;;;;;;16.20;9.95;;;;;;;4.38;100.00;102377.28;10448116;28;20086;-82